Skip Navigation LinksHome page > Weather > Current weather Skip Navigation Links

Current Weather

Sarh, Chad

For information only: do not use for flight planning or navigation.
Latest weather
Observation time Tuesday, September 2, 2014 2:00 AM WAT
Local time Tuesday, September 2, 2014 2:45 AM WAT
Flight conditions Visual Meteorological Conditions
Winds
Wind direction South-Southeast (160°)
Wind speed 3 mph
Visibility 6.2 mi.
Sky condition
Ceiling unlimited
Temperature 70°F
Dewpoint 68°F
Altimeter 29.88 in.Hg
Derived measurements
Relative humidity 94%
Density altitude 1424 ft.
METAR FTTA 020100Z 16003KT 9999 SCT 020 21/20 Q1012

Settings

Location code

InnerDrive.Weather 4.0.5356.0 Release CLR 4.0.30319.34014
Copyright ©2014 Inner Drive Technology. All rights reserved. Portions Copyright ©1986-2014 David Braverman.

Find weather

Site navigation


Skip Navigation Links

Place info

Page info

PayPal - The safer, easier way to pay online!

Return home.

Copyright ©2014 Inner Drive Technology. Purveyors of fine, hand-crafted computer software. Page printed 2014-09-02T01:45:26 UTC.